Portales, NM (88130)

10:14 PM MDT on August 29, 2014 (GMT -0600)
S of ENMU | Change Station
CLOSE
Current Station
Personal Weather Station
Location: Portales, NM
Elevation: 4078 ft
Nearby Weather Stations

Elev 4078 ft 34.17 °N, 103.35 °W | Updated 13 seconds ago

Clear
Clear
79.4 °F
Feels Like 79 °F
N
1.8
Wind Variable Wind from ENE
Gusts 2.7 mph

Today
High -- | Low -- °F
--% Chance of Precip.
Yesterday
High -- | Low -- °F
Precip. -- in
6:24 AM 7:23 PM
Waxing Crescent, 19% visible
Pressure 29.92 in
Visibility 10.0 miles
Clouds Clear
Heat Index 79 °F
Dew Point 43 °F
Humidity 28%
Rainfall 0.00 in
Snow Depth Not available.
UV 0 out of 12
Pollen 8.70 out of 12
Air Quality Not available.
Flu Activity Not available.
METAR KCVS 300358Z AUTO 11005KT 10SM CLR 21/05 A3009 RMK AO2 SLP132 T02110046 $

More Conditions Fewer Conditions

Pressure 29.92 in
Visibility 10.0 miles
Clouds Clear
Heat Index 79 °F
Dew Point 43 °F
Humidity 28%
Rainfall 0.00 in
Snow Depth Not available.
UV 0 out of 12
Pollen 8.70 out of 12
Air Quality Not available.
Flu Activity Not available.
METAR KCVS 300358Z AUTO 11005KT 10SM CLR 21/05 A3009 RMK AO2 SLP132 T02110046 $

More Conditions Fewer Conditions

10-Day Weather Forecast

Almanac

Astronomy

Aug. 29, 2014 Rise Set
Actual Time 6:24 AM MDT 7:23 PM MDT
Civil Twilight 5:59 AM MDT 7:48 PM MDT
Nautical Twilight 5:28 AM MDT 8:19 PM MDT
Astronomical Twilight 4:57 AM MDT 8:50 PM MDT
Moon 10:04 AM MDT (8/29) 9:35 PM MDT (8/29)
Length of Visible Light 13h 49m
Length of Day
12h 58m
Tomorrow will be 2m 1s shorter.
Waxing Crescent, 19% of the Moon is Illuminated
Aug 30
Waxing Crescent
Sep 2
First Quarter
Sep 8
Full
Sep 15
Last Quarter
Sep 24
New

Today's Extremes

State Highs State Lows

Community

WunderPhotos

Upload Photos

1,748,448 photos uploaded!

Nearby

Snow Depth

Station Depth Elevation
Sierra Blanca 2 in 10280 ft
Wesner Springs 1 in 11120 ft
Santa Fe 1 in 11445 ft
Gallegos Peak 0 in 9800 ft
Tolby 0 in 10180 ft

Earthquake Activity

City Distance Mag. Time & Date
No recent earthquake activity has been reported nearby.
Minimum magnitude displayed is 2.5.

Coastal Water Temperatures

Place Temperature
No Stations Reporting

Nearby Weather Stations